createdAt,value
2023-10-09T00:01:19.408Z,7.03
2023-10-09T00:06:39.359Z,7.03
2023-10-09T00:11:43.789Z,6.94
2023-10-09T00:16:51.045Z,7.00
2023-10-09T00:21:57.731Z,7.13
2023-10-09T00:27:14.657Z,7.28
2023-10-09T00:32:20.577Z,7.24
2023-10-09T00:37:26.709Z,7.42
2023-10-09T00:42:36.874Z,7.55
2023-10-09T00:47:42.746Z,7.74
2023-10-09T00:52:55.999Z,7.87
2023-10-09T00:58:01.761Z,8.00
2023-10-09T01:03:24.615Z,8.16
2023-10-09T01:08:45.380Z,8.35
2023-10-09T01:13:51.909Z,8.52
2023-10-09T01:19:00.118Z,8.63
2023-10-09T01:24:04.938Z,8.50
2023-10-09T01:29:16.881Z,8.77
2023-10-09T01:34:26.099Z,8.89
2023-10-09T01:39:32.294Z,8.98
2023-10-09T01:44:45.248Z,9.08
2023-10-09T01:56:16.902Z,9.18
2023-10-09T02:01:22.991Z,9.22
2023-10-09T02:06:28.136Z,9.27
2023-10-09T02:11:38.432Z,9.35
2023-10-09T02:16:44.138Z,9.46
2023-10-09T02:21:48.810Z,9.54
2023-10-09T02:26:53.023Z,9.69
2023-10-09T02:32:03.166Z,9.79
2023-10-09T02:37:14.774Z,9.83
2023-10-09T02:42:25.315Z,9.94
2023-10-09T02:47:39.544Z,9.87
2023-10-09T02:52:43.481Z,10.21
2023-10-09T02:57:53.555Z,10.37
2023-10-09T03:03:00.238Z,10.51
2023-10-09T03:08:04.600Z,10.63
2023-10-09T03:13:08.501Z,10.82
2023-10-09T03:18:15.946Z,11.05
2023-10-09T03:23:19.999Z,11.05
2023-10-09T03:28:24.230Z,11.47
2023-10-09T03:33:28.646Z,11.61
2023-10-09T03:38:36.913Z,11.72
2023-10-09T03:43:42.873Z,11.85
2023-10-09T03:48:48.622Z,11.79
2023-10-09T03:53:56.922Z,12.66
2023-10-09T03:59:02.236Z,13.31
2023-10-09T04:04:12.892Z,13.81
2023-10-09T04:09:22.864Z,14.13
2023-10-09T04:14:35.357Z,14.23
2023-10-09T04:19:50.073Z,14.19
2023-10-09T04:24:54.556Z,14.35
2023-10-09T04:29:58.732Z,14.63
2023-10-09T04:35:24.325Z,14.72
2023-10-09T04:40:50.157Z,14.93
2023-10-09T04:46:12.465Z,14.86
2023-10-09T04:51:23.603Z,14.80
2023-10-09T04:56:33.562Z,15.08
2023-10-09T05:01:47.179Z,15.23
2023-10-09T05:06:57.363Z,15.40
2023-10-09T05:12:11.878Z,15.46
2023-10-09T05:17:18.852Z,15.39
2023-10-09T05:22:38.344Z,15.36
2023-10-09T05:27:52.477Z,15.24
2023-10-09T05:33:00.778Z,15.26
2023-10-09T05:38:06.867Z,15.36
2023-10-09T05:43:31.509Z,15.39
2023-10-09T05:48:55.601Z,15.46
2023-10-09T05:54:18.421Z,15.51
2023-10-09T05:59:51.668Z,15.57
2023-10-09T06:04:59.706Z,15.60
2023-10-09T06:10:19.185Z,15.75
2023-10-09T06:15:53.250Z,15.90
2023-10-09T06:21:08.779Z,16.04
2023-10-09T06:26:25.931Z,16.00
2023-10-09T06:31:50.050Z,15.96
2023-10-09T06:36:57.071Z,16.10
2023-10-09T06:42:11.717Z,16.30
2023-10-09T06:47:20.678Z,16.32
2023-10-09T06:52:44.593Z,16.35
2023-10-09T06:57:50.874Z,16.31
2023-10-09T07:02:56.327Z,16.28
2023-10-09T07:08:20.132Z,16.22
2023-10-09T07:13:26.676Z,16.11
2023-10-09T07:18:50.922Z,16.05
2023-10-09T07:23:59.313Z,15.87
2023-10-09T07:29:17.827Z,16.18
2023-10-09T07:34:45.057Z,16.33
2023-10-09T07:39:58.996Z,16.32
2023-10-09T07:45:23.571Z,16.40
2023-10-09T07:50:40.135Z,16.28
2023-10-09T07:56:08.315Z,16.51
2023-10-09T08:01:18.405Z,16.69
2023-10-09T08:07:04.860Z,16.68
2023-10-09T08:12:36.881Z,16.63
2023-10-09T08:17:40.716Z,16.62
2023-10-09T08:22:45.092Z,16.58
2023-10-09T08:27:56.133Z,16.55
2023-10-09T08:38:12.462Z,16.58
2023-10-09T08:43:20.844Z,16.54
2023-10-09T08:48:28.769Z,16.44
2023-10-09T08:53:35.008Z,16.33
2023-10-09T08:58:40.176Z,16.31
2023-10-09T09:03:45.603Z,16.40
2023-10-09T09:08:49.875Z,16.36
2023-10-09T09:14:08.367Z,16.25
2023-10-09T09:19:12.578Z,16.16
2023-10-09T09:24:23.105Z,16.07
2023-10-09T09:29:39.224Z,15.96
2023-10-09T09:34:51.492Z,15.82
2023-10-09T09:40:02.754Z,15.83
2023-10-09T09:45:13.168Z,15.82
2023-10-09T09:50:26.512Z,15.80
2023-10-09T09:55:43.894Z,15.76
2023-10-09T10:00:55.057Z,15.72
2023-10-09T10:05:59.802Z,15.66
2023-10-09T10:11:06.894Z,15.59
2023-10-09T10:16:22.150Z,15.53
2023-10-09T10:21:34.962Z,15.27
2023-10-09T10:26:39.262Z,15.38
2023-10-09T10:31:58.298Z,15.33
2023-10-09T10:37:02.392Z,15.25
2023-10-09T10:42:07.657Z,15.11
2023-10-09T10:47:26.918Z,14.90
2023-10-09T10:52:46.859Z,15.00
2023-10-09T10:58:03.964Z,14.96
2023-10-09T11:03:19.954Z,14.88
2023-10-09T11:08:34.789Z,14.79
2023-10-09T11:13:54.388Z,14.70
2023-10-09T11:18:59.421Z,14.59
2023-10-09T11:24:23.155Z,14.48
2023-10-09T11:29:45.675Z,14.39
2023-10-09T11:35:11.262Z,14.28
2023-10-09T11:40:52.094Z,14.13
2023-10-09T11:46:13.330Z,14.02
2023-10-09T11:51:23.843Z,13.91
2023-10-09T11:56:30.560Z,13.81
2023-10-09T12:01:37.597Z,13.71
2023-10-09T12:06:44.279Z,13.39
2023-10-09T12:12:04.303Z,13.51
2023-10-09T12:17:11.918Z,13.41
2023-10-09T12:22:18.086Z,13.33
2023-10-09T12:27:24.897Z,12.95
2023-10-09T12:32:29.277Z,13.14
2023-10-09T12:37:33.285Z,13.07
2023-10-09T12:42:37.890Z,13.03
2023-10-09T12:47:44.222Z,12.92
2023-10-09T12:52:52.479Z,12.85
2023-10-09T12:57:56.820Z,12.79
2023-10-09T13:03:15.759Z,12.75
2023-10-09T13:08:23.066Z,12.69
2023-10-09T13:13:48.782Z,12.63
2023-10-09T13:18:54.483Z,12.59
2023-10-09T13:23:59.666Z,12.55
2023-10-09T13:29:05.727Z,12.51
2023-10-09T13:34:12.305Z,12.42
2023-10-09T13:39:28.631Z,12.32
2023-10-09T13:44:38.208Z,12.21
2023-10-09T13:49:43.927Z,12.19
2023-10-09T13:54:55.501Z,12.13
2023-10-09T14:00:01.932Z,12.09
2023-10-09T14:05:10.375Z,12.05
2023-10-09T14:10:20.255Z,12.08
2023-10-09T14:15:25.052Z,12.09
2023-10-09T14:20:33.534Z,12.05
2023-10-09T14:25:41.917Z,12.02
2023-10-09T14:30:51.178Z,11.97
2023-10-09T14:35:56.892Z,11.95
2023-10-09T14:41:01.849Z,11.88
2023-10-09T14:46:12.537Z,11.84
2023-10-09T14:51:17.210Z,11.86
2023-10-09T14:56:30.580Z,11.84
2023-10-09T15:01:34.787Z,11.81
2023-10-09T15:06:40.185Z,11.82
2023-10-09T15:11:44.190Z,11.85
2023-10-09T15:16:50.009Z,11.91
2023-10-09T15:21:54.147Z,11.77
2023-10-09T15:27:01.750Z,11.92
2023-10-09T15:32:16.548Z,11.96
2023-10-09T15:37:21.598Z,11.98
2023-10-09T15:42:25.894Z,12.00
2023-10-09T15:47:29.884Z,12.03
2023-10-09T15:52:34.103Z,12.07
2023-10-09T15:57:38.405Z,12.07
2023-10-09T16:02:43.871Z,12.03
2023-10-09T16:07:48.309Z,12.03
2023-10-09T16:12:55.509Z,11.79
2023-10-09T16:18:04.932Z,12.07
2023-10-09T16:23:11.668Z,12.08
2023-10-09T16:28:17.591Z,12.08
2023-10-09T16:33:22.268Z,12.12
2023-10-09T16:38:27.309Z,12.11
2023-10-09T16:43:32.198Z,12.09
2023-10-09T16:48:41.846Z,12.05
2023-10-09T16:53:46.111Z,12.05
2023-10-09T16:58:54.106Z,12.03
2023-10-09T17:03:59.945Z,11.97
2023-10-09T17:09:08.698Z,12.00
2023-10-09T17:14:17.687Z,12.02
2023-10-09T17:19:22.206Z,12.04
2023-10-09T17:24:26.278Z,12.01
2023-10-09T17:29:30.217Z,12.01
2023-10-09T17:34:35.944Z,11.95
2023-10-09T17:39:40.473Z,11.93
2023-10-09T17:44:44.417Z,12.02
2023-10-09T17:49:48.856Z,11.98
2023-10-09T17:54:54.198Z,11.98
2023-10-09T17:59:58.181Z,11.89
2023-10-09T18:05:02.868Z,11.89
2023-10-09T18:10:08.142Z,11.85
2023-10-09T18:15:15.174Z,11.75
2023-10-09T18:20:22.660Z,11.71
2023-10-09T18:25:27.637Z,11.69
2023-10-09T18:30:33.309Z,11.65
2023-10-09T18:35:39.936Z,11.66
2023-10-09T18:40:48.902Z,11.66
2023-10-09T18:45:53.094Z,11.59
2023-10-09T18:51:00.212Z,11.57
2023-10-09T18:56:07.530Z,11.52
2023-10-09T19:01:17.291Z,11.56
2023-10-09T19:06:25.648Z,11.54
2023-10-09T19:11:31.714Z,11.53
2023-10-09T19:16:35.973Z,11.46
2023-10-09T19:21:41.699Z,11.43
2023-10-09T19:26:45.896Z,11.41
2023-10-09T19:31:52.736Z,11.45
2023-10-09T19:36:57.175Z,11.47
2023-10-09T19:42:01.239Z,11.46
2023-10-09T19:47:07.571Z,11.49
2023-10-09T19:52:11.468Z,11.48
2023-10-09T19:57:15.481Z,11.47
2023-10-09T20:02:19.565Z,11.52
2023-10-09T20:07:23.452Z,11.54
2023-10-09T20:12:27.980Z,11.56
2023-10-09T20:17:33.139Z,11.50
2023-10-09T20:22:39.520Z,11.49
2023-10-09T20:27:46.305Z,11.45
2023-10-09T20:32:50.215Z,11.49
2023-10-09T20:38:03.324Z,11.49
2023-10-09T20:43:07.277Z,11.48
2023-10-09T20:48:11.168Z,11.51
2023-10-09T20:53:15.741Z,11.48
2023-10-09T20:58:19.754Z,11.44
2023-10-09T21:03:24.644Z,11.23
2023-10-09T21:08:28.873Z,11.52
2023-10-09T21:13:33.440Z,11.53
2023-10-09T21:18:37.535Z,11.55
2023-10-09T21:23:43.518Z,11.30
2023-10-09T21:28:52.346Z,11.57
2023-10-09T21:33:58.892Z,11.57
2023-10-09T21:39:02.715Z,11.55
2023-10-09T21:44:09.388Z,11.56
2023-10-09T21:49:13.661Z,11.57
2023-10-09T21:54:18.346Z,11.58
2023-10-09T21:59:22.207Z,11.58
2023-10-09T22:04:27.706Z,11.54
2023-10-09T22:09:31.624Z,11.56
2023-10-09T22:14:38.543Z,11.54
2023-10-09T22:19:43.845Z,11.53
2023-10-09T22:24:50.709Z,11.47
2023-10-09T22:29:57.456Z,11.53
2023-10-09T22:35:02.418Z,11.50
2023-10-09T22:40:22.783Z,11.20
2023-10-09T22:45:33.962Z,11.40
2023-10-09T22:50:38.140Z,11.37
2023-10-09T23:02:01.474Z,11.38
2023-10-09T23:07:16.344Z,11.39
2023-10-09T23:12:25.699Z,11.46
2023-10-09T23:17:49.620Z,11.48
2023-10-09T23:22:54.518Z,11.47
2023-10-09T23:28:18.912Z,11.46
2023-10-09T23:33:22.768Z,11.45
2023-10-09T23:38:29.926Z,11.47
2023-10-09T23:43:36.512Z,11.46
2023-10-09T23:48:41.314Z,11.45
2023-10-09T23:53:48.490Z,11.47
2023-10-09T23:58:53.731Z,11.47
